Webcam Meteoipassi more information Webcam Meteoipassi


Pisa torre orologio more information Pisa torre orologio


altri nostri siti meteo:

Pomeziameteo 1Sito sul meteo

Pomeziameteo DashboardSito sul meteo

Caput FrigorisSito sul meteo

BarcellonameteoSito sul meteo

MeteoipassiSito sul meteo

ViterbometeoSito sul meteo

MeteotortoretoSito sul meteo

TortoretometeolidoSito sul meteo

MeteoGonzagaSito sul meteo



Nessuna attenzione particolare richiesta.    Non ci sono allerte meteo

Report METAR

   
LIRQ - Firenze
Dati ricevuti: Aug 15 2018 5:50 am
Parzialmente nuvoloso  
Parzialmente nuvoloso  
   Vento: NO 9.3 km/h
Vento: NO 9.3 km/h
Temperatura: 22°C
P.to Rugiada: 16°C
Umidita: 69%
Barometro: 1013 hPa
Nuvole: Parzialmente nuvoloso
Visibilita: oltre 10 km
dettagli cloud: Parzialmente nuvoloso 1828.8 m
LIRQ 150350Z 32005KT 300V010 9999 SCT060 22/16 Q1013
LIRP - Lucca
Dati ricevuti: Aug 15 2018 4:15 am
DATI Obsoleti
Sereno  
Sereno  
   Vento: SE 9.3 km/h
Vento: SE 9.3 km/h
Temperatura: 19°C
P.to Rugiada: 18°C
Umidita: 94%
Barometro: 1013 hPa
Visibilita: oltre 10 km
dettagli cloud: Sereno
LIRP 150215Z 13005KT CAVOK 19/18 Q1013 NOSIG
LIRP - Livorno
Dati ricevuti: Aug 15 2018 4:15 am
DATI Obsoleti
Sereno  
Sereno  
   Vento: SE 9.3 km/h
Vento: SE 9.3 km/h
Temperatura: 19°C
P.to Rugiada: 18°C
Umidita: 94%
Barometro: 1013 hPa
Visibilita: oltre 10 km
dettagli cloud: Sereno
LIRP 150215Z 13005KT CAVOK 19/18 Q1013 NOSIG
LIMP - Parma
Dati ricevuti: Aug 14 2018 10:50 pm
DATI Obsoleti
Parzialmente nuvoloso  
Parzialmente nuvoloso  
   Vento: Oriente 5.6 km/h
Vento: Oriente 5.6 km/h
Temperatura: 21°C
P.to Rugiada: 20°C
Umidita: 94%
Barometro: 1014 hPa
Nuvole: Parzialmente nuvoloso
Visibilita: oltre 10 km
dettagli cloud: Parzialmente nuvoloso 1828.8 m
LIMP 142050Z 09003KT 050V140 9999 SCT060 21/20 Q1014
LIRF - Roma
Dati ricevuti: Aug 15 2018 5:50 am
Poche nuvole  
Poche nuvole  
   Vento: Nord 7.4 km/h
Vento: Nord 7.4 km/h
Temperatura: 20°C
P.to Rugiada: 19°C
Umidita: 94%
Barometro: 1011 hPa
Nuvole: Poche nuvole
Visibilita: oltre 10 km
dettagli cloud: Poche nuvole 914.4 m
LIRF 150350Z 01004KT 9999 FEW030 20/19 Q1011 NOSIG
 

Script sviluppato da  Saratoga-weather.org Adattato per il modello da  Weerstation Leuven

Potete trovare le nostre info meteo anche a:

European Weather Network

Weather Underground

AWEKAS

HAMweather, WeatherForYou, PWS Weather

Strumentazione usata:

Stazione meteo
Oregon Scientific WMR88

Programma gestore dati meteo
WVIEW

Server per i dati meteo
WDS-5

Provider
Anemos WDS-5

Oregon Scientific WMR88

WVIEW

WDS-5

Anemos WDS-5